createdAt,value
2019-01-21T00:00:19.319Z,83.95
2019-01-21T00:01:17.846Z,85.19
2019-01-21T00:02:16.404Z,84.52
2019-01-21T00:03:15.008Z,84.61
2019-01-21T00:04:13.816Z,84.9
2019-01-21T00:05:12.386Z,84.86
2019-01-21T00:06:10.912Z,85.09
2019-01-21T00:07:09.629Z,85.14
2019-01-21T00:08:08.299Z,85.24
2019-01-21T00:09:06.820Z,84.77
2019-01-21T00:11:47.242Z,85.05
2019-01-21T00:12:46.109Z,85.38
2019-01-21T00:13:44.656Z,85.52
2019-01-21T00:14:43.211Z,85.9
2019-01-21T00:15:41.921Z,85.24
2019-01-21T00:16:40.662Z,85.9
2019-01-21T00:17:39.232Z,85.8
2019-01-21T00:18:37.902Z,85.99
2019-01-21T00:19:36.470Z,86.47
2019-01-21T00:20:34.983Z,86.28
2019-01-21T00:24:13.974Z,86.66
2019-01-21T00:25:12.528Z,86.47
2019-01-21T00:26:11.104Z,86.56
2019-01-21T00:27:09.945Z,87.23
2019-01-21T00:28:08.513Z,87.23
2019-01-21T00:29:07.038Z,87.23
2019-01-21T00:30:05.817Z,86.94
2019-01-21T00:31:04.439Z,87.6
2019-01-21T00:32:02.963Z,87.6
2019-01-21T00:33:01.513Z,86.94
2019-01-21T00:35:41.959Z,86.56
2019-01-21T00:36:40.490Z,86.94
2019-01-21T00:37:39.040Z,86.66
2019-01-21T00:40:19.576Z,86.85
2019-01-21T00:41:18.305Z,86.56
2019-01-21T00:42:16.983Z,86.56
2019-01-21T00:43:15.803Z,86.56
2019-01-21T00:44:14.439Z,86.85
2019-01-21T00:45:13.013Z,86.37
2019-01-21T00:46:11.525Z,86.18
2019-01-21T00:47:10.610Z,85.9
2019-01-21T00:48:09.432Z,85.61
2019-01-21T00:49:08.073Z,85.9
2019-01-21T00:50:06.591Z,85.8
2019-01-21T00:51:05.129Z,85.61
2019-01-21T00:52:03.657Z,85.9
2019-01-21T00:53:02.371Z,85.71
2019-01-21T00:54:00.902Z,85.71
2019-01-21T00:54:59.634Z,86.66
2019-01-21T00:55:58.331Z,86.85
2019-01-21T00:56:56.876Z,86.37
2019-01-21T00:57:55.532Z,85.99
2019-01-21T00:58:54.277Z,85.71
2019-01-21T00:59:52.859Z,85.52
2019-01-21T01:00:51.369Z,85.8
2019-01-21T01:01:49.896Z,86.09
2019-01-21T01:02:48.443Z,85.99
2019-01-21T01:03:46.977Z,85.52
2019-01-21T01:04:45.809Z,85.33
2019-01-21T01:05:44.330Z,84.95
2019-01-21T01:06:42.868Z,84.86
2019-01-21T01:07:41.640Z,85.42
2019-01-21T01:08:40.442Z,85.52
2019-01-21T01:09:38.972Z,84.86
2019-01-21T01:10:37.534Z,85.52
2019-01-21T01:11:36.109Z,85.14
2019-01-21T01:12:34.670Z,85.42
2019-01-21T01:13:33.258Z,84.95
2019-01-21T01:14:32.003Z,85.52
2019-01-21T01:15:30.542Z,85.14
2019-01-21T01:18:10.756Z,84.39
2019-01-21T01:19:09.294Z,84.29
2019-01-21T01:20:07.941Z,85.05
2019-01-21T01:21:06.494Z,85.05
2019-01-21T01:22:05.040Z,85.05
2019-01-21T01:23:03.584Z,85.52
2019-01-21T01:24:02.226Z,84.77
2019-01-21T01:25:00.742Z,85.24
2019-01-21T01:25:59.694Z,84.86
2019-01-21T01:26:58.293Z,84.48
2019-01-21T01:27:56.897Z,84.39
2019-01-21T01:28:55.490Z,84.39
2019-01-21T01:29:54.150Z,84.48
2019-01-21T01:30:52.714Z,84.01
2019-01-21T01:31:51.269Z,84.67
2019-01-21T01:32:49.808Z,84.95
2019-01-21T01:33:48.330Z,85.42
2019-01-21T01:34:47.173Z,84.95
2019-01-21T01:46:33.717Z,85.52
2019-01-21T01:47:32.344Z,85.42
2019-01-21T01:48:30.887Z,85.8
2019-01-21T01:49:29.449Z,86.09
2019-01-21T01:50:28.002Z,85.9
2019-01-21T01:51:26.533Z,85.9
2019-01-21T01:52:25.091Z,85.8
2019-01-21T01:53:23.585Z,85.9
2019-01-21T01:54:22.156Z,85.99
2019-01-21T01:55:20.693Z,85.61
2019-01-21T01:56:19.438Z,84.86
2019-01-21T01:57:18.037Z,85.14
2019-01-21T01:58:17.554Z,84.86
2019-01-21T01:59:16.243Z,84.77
2019-01-21T02:00:14.816Z,84.77
2019-01-21T02:01:13.387Z,85.42
2019-01-21T02:04:52.525Z,85.8
2019-01-21T02:05:51.067Z,84.95
2019-01-21T02:06:50.043Z,85.52
2019-01-21T02:07:48.585Z,84.77
2019-01-21T02:08:47.126Z,84.39
2019-01-21T02:09:46.119Z,84.2
2019-01-21T02:10:44.666Z,84.95
2019-01-21T02:11:43.423Z,84.67
2019-01-21T02:12:42.082Z,84.29
2019-01-21T02:13:40.633Z,84.39
2019-01-21T02:14:39.150Z,84.48
2019-01-21T02:15:37.939Z,84.1
2019-01-21T02:16:36.476Z,84.01
2019-01-21T02:17:35.064Z,84.29
2019-01-21T02:18:33.720Z,83.91
2019-01-21T02:19:32.426Z,83.72
2019-01-21T02:20:30.985Z,84.01
2019-01-21T02:21:29.738Z,84.48
2019-01-21T02:32:50.692Z,83.72
2019-01-21T02:33:49.272Z,83.72
2019-01-21T02:34:48.033Z,84.1
2019-01-21T02:35:46.571Z,84.58
2019-01-21T02:36:45.098Z,84.95
2019-01-21T02:37:43.998Z,84.95
2019-01-21T02:38:42.571Z,85.05
2019-01-21T02:39:41.107Z,85.52
2019-01-21T02:40:39.628Z,84.86
2019-01-21T02:41:38.195Z,84.95
2019-01-21T02:42:36.742Z,84.86
2019-01-21T02:43:35.273Z,84.58
2019-01-21T02:44:33.817Z,84.77
2019-01-21T02:45:32.363Z,84.77
2019-01-21T02:46:30.921Z,84.67
2019-01-21T02:47:29.758Z,84.86
2019-01-21T02:48:28.438Z,84.29
2019-01-21T02:49:26.964Z,84.95
2019-01-21T02:50:25.528Z,85.33
2019-01-21T02:51:24.177Z,85.05
2019-01-21T02:52:22.733Z,84.86
2019-01-21T02:53:21.283Z,85.05
2019-01-21T02:54:20.007Z,85.05
2019-01-21T02:55:19.163Z,85.42
2019-01-21T02:56:17.717Z,85.14
2019-01-21T02:57:16.361Z,85.61
2019-01-21T02:58:14.899Z,85.71
2019-01-21T03:01:53.693Z,85.42
2019-01-21T03:02:52.300Z,85.14
2019-01-21T03:03:50.826Z,85.42
2019-01-21T03:04:49.462Z,85.28
2019-01-21T03:05:48.237Z,85.33
2019-01-21T03:06:46.751Z,85.76
2019-01-21T03:07:45.308Z,85.71
2019-01-21T03:08:43.990Z,85.9
2019-01-21T03:09:42.527Z,85.66
2019-01-21T03:10:41.108Z,85.95
2019-01-21T03:11:39.660Z,86.42
2019-01-21T03:14:19.987Z,86.42
2019-01-21T03:15:18.531Z,86.42
2019-01-21T03:16:17.070Z,85.85
2019-01-21T03:17:15.885Z,86.18
2019-01-21T03:18:14.567Z,85.9
2019-01-21T03:19:13.124Z,85.52
2019-01-21T03:20:11.682Z,85.8
2019-01-21T03:21:10.219Z,85.85
2019-01-21T03:22:08.778Z,85.85
2019-01-21T03:23:07.653Z,85.71
2019-01-21T03:24:06.355Z,85.71
2019-01-21T03:25:04.892Z,85.42
2019-01-21T03:26:03.583Z,85.52
2019-01-21T03:27:02.193Z,85.52
2019-01-21T03:28:00.716Z,85.33
2019-01-21T03:28:59.263Z,85.52
2019-01-21T03:29:57.794Z,85.57
2019-01-21T03:30:56.354Z,85.76
2019-01-21T03:33:19.187Z,85.8
2019-01-21T03:34:17.958Z,85.52
2019-01-21T03:35:16.503Z,85.76
2019-01-21T03:36:15.194Z,85.76
2019-01-21T03:37:13.733Z,85.66
2019-01-21T03:38:12.338Z,86.04
2019-01-21T03:39:10.886Z,86.04
2019-01-21T03:40:09.696Z,85.85
2019-01-21T03:41:08.457Z,86.42
2019-01-21T03:42:06.999Z,86.9
2019-01-21T03:43:05.688Z,86.61
2019-01-21T03:44:04.340Z,86.71
2019-01-21T03:45:02.882Z,86.61
2019-01-21T03:46:01.438Z,86.71
2019-01-21T03:46:59.978Z,86.61
2019-01-21T03:47:58.507Z,86.52
2019-01-21T03:48:57.072Z,86.71
2019-01-21T03:49:55.872Z,86.71
2019-01-21T03:50:54.440Z,86.52
2019-01-21T03:51:52.987Z,86.52
2019-01-21T03:52:51.732Z,86.71
2019-01-21T03:53:50.552Z,86.52
2019-01-21T03:54:49.105Z,87.27
2019-01-21T03:55:47.608Z,87.55
2019-01-21T03:56:46.146Z,87.27
2019-01-21T03:57:44.675Z,87.46
2019-01-21T03:58:43.238Z,87.55
2019-01-21T03:59:42.133Z,87.65
2019-01-21T04:00:40.682Z,87.84
2019-01-21T04:01:41.283Z,88.5
2019-01-21T04:02:39.922Z,88.03
2019-01-21T04:03:38.544Z,87.84
2019-01-21T04:04:37.119Z,88.22
2019-01-21T04:05:35.660Z,88.12
2019-01-21T04:06:34.219Z,87.65
2019-01-21T04:07:32.777Z,87.74
2019-01-21T04:08:31.537Z,87.65
2019-01-21T04:09:30.312Z,87.46
2019-01-21T04:10:28.853Z,87.18
2019-01-21T04:11:27.493Z,86.61
2019-01-21T04:12:26.175Z,87.55
2019-01-21T04:13:24.713Z,87.37
2019-01-21T04:14:23.250Z,87.27
2019-01-21T04:15:21.834Z,87.46
2019-01-21T04:16:20.393Z,87.37
2019-01-21T04:17:18.911Z,87.84
2019-01-21T04:18:24.305Z,87.65
2019-01-21T04:19:15.954Z,87.65
2019-01-21T04:20:14.491Z,87.74
2019-01-21T04:23:53.036Z,87.18
2019-01-21T04:24:54.284Z,87.55
2019-01-21T04:25:54.494Z,87.65
2019-01-21T04:26:51.441Z,87.46
2019-01-21T04:27:49.980Z,87.55
2019-01-21T04:28:48.537Z,87.89
2019-01-21T04:29:47.068Z,88.55
2019-01-21T04:30:45.580Z,88.74
2019-01-21T04:52:30.798Z,87.98
2019-01-21T04:53:29.334Z,88.12
2019-01-21T04:54:28.171Z,87.79
2019-01-21T04:55:26.765Z,88.22
2019-01-21T04:56:25.465Z,87.55
2019-01-21T04:57:24.039Z,87.46
2019-01-21T04:58:22.568Z,87.08
2019-01-21T04:59:21.132Z,86.42
2019-01-21T05:00:20.020Z,86.42
2019-01-21T05:01:18.556Z,86.42
2019-01-21T05:02:17.100Z,86.42
2019-01-21T05:03:15.875Z,86.42
2019-01-21T05:04:14.482Z,86.71
2019-01-21T05:05:13.026Z,86.71
2019-01-21T05:06:11.582Z,86.71
2019-01-21T05:07:10.102Z,86.42
2019-01-21T05:08:08.654Z,86.42
2019-01-21T05:09:07.190Z,86.42
2019-01-21T05:10:05.717Z,86.71
2019-01-21T05:11:04.426Z,86.8
2019-01-21T05:12:02.963Z,86.61
2019-01-21T05:13:01.787Z,86.71
2019-01-21T05:14:00.403Z,87.08
2019-01-21T05:14:58.939Z,86.9
2019-01-21T05:17:39.400Z,86.9
2019-01-21T05:18:41.241Z,87.65
2019-01-21T05:19:36.674Z,87.27
2019-01-21T05:20:37.381Z,87.08
2019-01-21T05:21:36.027Z,87.42
2019-01-21T05:22:34.575Z,87.13
2019-01-21T05:23:33.128Z,87.65
2019-01-21T05:24:31.748Z,87.55
2019-01-21T05:25:30.301Z,87.27
2019-01-21T05:26:28.861Z,87.65
2019-01-21T05:27:27.443Z,86.9
2019-01-21T05:28:26.136Z,86.99
2019-01-21T05:29:24.684Z,87.23
2019-01-21T05:30:26.228Z,87.46
2019-01-21T05:31:24.759Z,87.27
2019-01-21T05:32:23.304Z,87.7
2019-01-21T05:35:03.527Z,87.79
2019-01-21T05:36:02.157Z,88.46
2019-01-21T05:38:25.318Z,88.27
2019-01-21T05:39:24.034Z,89.31
2019-01-21T05:40:22.674Z,89.22
2019-01-21T05:41:21.197Z,89.31
2019-01-21T05:42:19.752Z,89.4
2019-01-21T05:43:18.284Z,88.93
2019-01-21T05:44:16.831Z,88.65
2019-01-21T05:46:49.818Z,88.74
2019-01-21T05:47:48.376Z,88.93
2019-01-21T05:48:48.936Z,88.46
2019-01-21T05:49:45.442Z,88.36
2019-01-21T05:50:43.969Z,88.27
2019-01-21T05:51:42.533Z,88.36
2019-01-21T05:52:41.074Z,89.22
2019-01-21T05:53:39.713Z,89.03
2019-01-21T05:54:38.346Z,89.4
2019-01-21T05:55:36.971Z,89.59
2019-01-21T05:56:35.742Z,89.31
2019-01-21T05:57:34.550Z,89.5
2019-01-21T05:58:33.109Z,88.84
2019-01-21T05:59:31.646Z,89.12
2019-01-21T06:00:30.431Z,89.4
2019-01-21T06:01:28.966Z,89.03
2019-01-21T06:02:27.596Z,89.12
2019-01-21T06:03:26.659Z,89.59
2019-01-21T06:04:25.238Z,88.93
2019-01-21T06:05:23.747Z,88.84
2019-01-21T06:06:22.323Z,88.74
2019-01-21T06:07:20.864Z,88.36
2019-01-21T06:08:19.654Z,88.46
2019-01-21T06:09:18.370Z,88.93
2019-01-21T06:10:16.908Z,89.03
2019-01-21T06:11:15.550Z,89.31
2019-01-21T06:12:14.166Z,89.97
2019-01-21T06:13:12.712Z,89.78
2019-01-21T06:14:11.278Z,90.16
2019-01-21T06:15:09.852Z,89.87
2019-01-21T06:16:08.628Z,89.69
2019-01-21T06:17:07.193Z,89.97
2019-01-21T06:18:05.865Z,89.87
2019-01-21T06:19:04.531Z,89.78
2019-01-21T06:20:03.063Z,89.97
2019-01-21T06:21:01.698Z,89.78
2019-01-21T06:22:00.725Z,90.16
2019-01-21T06:22:59.400Z,89.87
2019-01-21T06:23:58.180Z,90.54
2019-01-21T06:24:56.752Z,91.1
2019-01-21T06:25:55.293Z,91.29
2019-01-21T06:26:53.958Z,92.24
2019-01-21T06:27:52.598Z,91.77
2019-01-21T06:28:51.110Z,92.52
2019-01-21T06:29:49.661Z,92.61
2019-01-21T06:30:48.376Z,92.43
2019-01-21T06:31:46.959Z,92.33
2019-01-21T06:32:45.869Z,91.72
2019-01-21T06:33:44.609Z,91.77
2019-01-21T06:34:43.140Z,91.82
2019-01-21T06:35:41.657Z,93.28
2019-01-21T06:36:40.209Z,94.89
2019-01-21T06:37:38.771Z,96.02
2019-01-21T06:38:37.323Z,97.15
2019-01-21T06:39:36.138Z,96.87
2019-01-21T06:40:34.709Z,96.96
2019-01-21T06:41:33.370Z,98.47
2019-01-21T06:42:31.969Z,98.95
2019-01-21T06:43:30.895Z,97.06
2019-01-21T06:46:05.942Z,96.68
2019-01-21T06:48:46.482Z,94.41
2019-01-21T06:49:45.011Z,93.94
2019-01-21T06:50:43.595Z,94.79
2019-01-21T06:51:42.276Z,95.73
2019-01-21T06:52:40.840Z,93.94
2019-01-21T06:53:39.365Z,93.56
2019-01-21T06:54:37.899Z,92.43
2019-01-21T06:55:36.451Z,92.61
2019-01-21T06:56:34.992Z,93.56
2019-01-21T07:18:03.698Z,96.96
2019-01-21T07:19:02.382Z,93.84
2019-01-21T07:20:00.941Z,98.57
2019-01-21T07:20:59.553Z,98.19
2019-01-21T07:21:58.259Z,95.83
2019-01-21T07:22:56.819Z,93.66
2019-01-21T07:26:35.723Z,99.99
2019-01-21T07:27:34.486Z,99.99
2019-01-21T07:28:33.131Z,99.99
2019-01-21T07:29:31.729Z,99.99
2019-01-21T07:30:30.408Z,99.99
2019-01-21T07:31:28.967Z,99.99
2019-01-21T07:35:08.143Z,99.99
2019-01-21T07:36:06.693Z,99.99
2019-01-21T07:56:09.316Z,99.99
2019-01-21T07:57:07.880Z,99.99
2019-01-21T07:58:06.515Z,99.99
2019-01-21T07:59:05.132Z,99.99
2019-01-21T08:00:03.906Z,99.99
2019-01-21T08:01:02.633Z,99.99
2019-01-21T08:02:01.351Z,99.99
2019-01-21T08:02:59.939Z,99.99
2019-01-21T08:03:58.554Z,99.99
2019-01-21T08:04:57.085Z,99.99
2019-01-21T08:05:56.025Z,99.99
2019-01-21T08:06:58.446Z,99.99
2019-01-21T08:07:53.065Z,99.99
2019-01-21T08:08:51.830Z,99.99
2019-01-21T08:09:50.451Z,99.99
2019-01-21T08:10:49.007Z,99.99
2019-01-21T08:11:47.554Z,99.99
2019-01-21T08:12:46.108Z,99.99
2019-01-21T08:13:44.656Z,99.99
2019-01-21T08:14:43.217Z,99.99
2019-01-21T08:15:41.825Z,99.99
2019-01-21T08:16:40.614Z,99.99
2019-01-21T08:17:39.176Z,99.99
2019-01-21T08:18:37.982Z,99.99
2019-01-21T08:19:36.663Z,99.99
2019-01-21T08:20:35.198Z,99.99
2019-01-21T08:21:33.732Z,99.99
2019-01-21T08:22:32.324Z,99.99
2019-01-21T08:23:30.896Z,99.99
2019-01-21T08:24:29.696Z,99.99
2019-01-21T08:25:28.475Z,99.99
2019-01-21T08:26:26.997Z,99.99
2019-01-21T08:27:25.622Z,99.99
2019-01-21T08:30:05.642Z,99.99
2019-01-21T08:31:04.326Z,99.99
2019-01-21T08:32:02.854Z,99.99
2019-01-21T08:33:01.375Z,99.66
2019-01-21T08:33:59.884Z,99.38
2019-01-21T08:34:58.425Z,98.9
2019-01-21T08:35:56.945Z,96.73
2019-01-21T08:36:55.522Z,98.33
2019-01-21T08:37:54.042Z,99.99
2019-01-21T08:38:52.579Z,98.05
2019-01-21T08:41:32.993Z,97.96
2019-01-21T08:44:13.202Z,96.35
2019-01-21T08:45:11.741Z,99.99
2019-01-21T08:46:10.355Z,99.99
2019-01-21T08:47:08.915Z,99.99
2019-01-21T08:48:07.440Z,97.96
2019-01-21T08:49:06.016Z,97.67
2019-01-21T08:50:04.573Z,98.24
2019-01-21T08:51:03.138Z,99.99
2019-01-21T08:53:26.009Z,99.99
2019-01-21T08:54:24.529Z,99.99
2019-01-21T08:57:04.673Z,99.99
2019-01-21T08:58:04.573Z,99.99
2019-01-21T08:59:01.791Z,99.99
2019-01-21T09:00:00.365Z,99.99
2019-01-21T09:01:01.835Z,99.99
2019-01-21T09:02:00.400Z,99.99
2019-01-21T09:02:58.945Z,99.99
2019-01-21T09:03:57.685Z,99.99
2019-01-21T09:04:56.347Z,99.99
2019-01-21T09:08:44.604Z,99.99
2019-01-21T09:09:43.140Z,99.99
2019-01-21T09:10:41.898Z,99.99
2019-01-21T09:11:40.588Z,99.99
2019-01-21T09:12:39.094Z,99.99
2019-01-21T09:13:37.688Z,99.99
2019-01-21T09:14:36.416Z,99.99
2019-01-21T09:15:34.976Z,99.99
2019-01-21T09:16:33.641Z,99.99
2019-01-21T09:17:32.430Z,99.99
2019-01-21T09:18:30.978Z,99.99
2019-01-21T09:19:29.508Z,99.99
2019-01-21T09:20:28.360Z,99.99
2019-01-21T09:21:26.885Z,99.99
2019-01-21T09:22:25.498Z,99.99
2019-01-21T09:23:24.282Z,98.77
2019-01-21T09:24:22.873Z,99.99
2019-01-21T09:25:21.592Z,98.52
2019-01-21T09:26:20.256Z,99.99
2019-01-21T09:27:18.784Z,99.99
2019-01-21T09:28:17.415Z,99.99
2019-01-21T09:30:58.247Z,99.99
2019-01-21T09:31:56.812Z,99.99
2019-01-21T09:32:55.325Z,99.99
2019-01-21T09:33:53.886Z,99.99
2019-01-21T09:34:52.447Z,99.99
2019-01-21T09:35:51.009Z,99.99
2019-01-21T09:36:49.663Z,99.99
2019-01-21T09:37:48.869Z,99.99
2019-01-21T09:38:47.478Z,99.99
2019-01-21T09:39:46.007Z,99.99
2019-01-21T09:40:44.777Z,99.99
2019-01-21T09:41:43.538Z,99.99
2019-01-21T09:42:41.993Z,99.99
2019-01-21T09:43:40.725Z,99.99
2019-01-21T09:44:39.239Z,99.99
2019-01-21T09:45:37.900Z,99.99
2019-01-21T09:46:36.741Z,99.99
2019-01-21T09:47:35.283Z,99.99
2019-01-21T09:59:18.563Z,99.99
2019-01-21T10:00:17.087Z,99.99
2019-01-21T10:01:15.861Z,99.99
2019-01-21T10:02:14.492Z,99.99
2019-01-21T10:03:13.017Z,99.99
2019-01-21T10:04:11.657Z,99.99
2019-01-21T10:05:10.345Z,99.99
2019-01-21T10:06:08.909Z,99.99
2019-01-21T10:07:07.498Z,99.99
2019-01-21T10:08:06.044Z,99.99
2019-01-21T10:09:04.594Z,99.99
2019-01-21T10:11:45.004Z,99.99
2019-01-21T10:12:43.700Z,99.99
2019-01-21T10:13:42.455Z,99.99
2019-01-21T10:14:41.004Z,99.99
2019-01-21T10:15:39.742Z,99.99
2019-01-21T10:16:38.362Z,99.99
2019-01-21T10:17:36.909Z,99.99
2019-01-21T10:18:35.517Z,99.99
2019-01-21T10:19:34.279Z,99.99
2019-01-21T10:20:32.821Z,99.99
2019-01-21T10:21:31.351Z,99.99
2019-01-21T10:22:30.025Z,99.99
2019-01-21T10:23:28.570Z,99.99
2019-01-21T10:24:27.095Z,99.99
2019-01-21T10:25:25.609Z,99.99
2019-01-21T10:26:24.179Z,99.29
2019-01-21T10:27:22.745Z,94.27
2019-01-21T10:28:21.286Z,94.08
2019-01-21T10:32:00.522Z,95.4
2019-01-21T10:32:59.064Z,96.26
2019-01-21T10:33:57.600Z,99.66
2019-01-21T10:34:56.187Z,97.96
2019-01-21T10:35:54.734Z,99.99
2019-01-21T10:38:34.820Z,99.99
2019-01-21T10:39:33.547Z,99.99
2019-01-21T10:40:32.154Z,99.99
2019-01-21T10:41:30.688Z,99.99
2019-01-21T10:43:53.309Z,99.99
2019-01-21T10:44:51.976Z,99.99
2019-01-21T10:45:50.556Z,99.99
2019-01-21T10:46:49.130Z,99.99
2019-01-21T10:47:47.666Z,99.99
2019-01-21T10:48:46.477Z,99.99
2019-01-21T10:49:44.997Z,99.99
2019-01-21T10:50:43.636Z,99.99
2019-01-21T10:51:42.461Z,99.99
2019-01-21T10:52:41.018Z,99.99
2019-01-21T10:53:39.563Z,99.99
2019-01-21T10:54:38.195Z,99.99
2019-01-21T10:55:36.764Z,99.99
2019-01-21T10:56:35.308Z,99.99
2019-01-21T10:57:33.847Z,99.99
2019-01-21T10:58:32.480Z,99.99
2019-01-21T10:59:30.991Z,99.99
2019-01-21T11:02:11.025Z,95.5
2019-01-21T11:05:50.129Z,99.99
2019-01-21T11:06:48.740Z,99.99
2019-01-21T11:09:28.811Z,99.99
2019-01-21T11:10:27.348Z,99.99
2019-01-21T11:11:26.198Z,99.99
2019-01-21T11:12:24.721Z,99.99
2019-01-21T11:13:23.269Z,97.3
2019-01-21T11:14:22.063Z,93.94
2019-01-21T11:15:20.755Z,93.99
2019-01-21T11:16:19.323Z,92.61
2019-01-21T11:17:17.895Z,90.96
2019-01-21T11:18:16.501Z,92.61
2019-01-21T11:20:58.023Z,94.08
2019-01-21T11:21:56.805Z,94.08
2019-01-21T11:22:55.328Z,92.61
2019-01-21T11:23:53.975Z,89.54
2019-01-21T11:26:34.294Z,94.04
2019-01-21T11:27:32.870Z,95.45
2019-01-21T11:29:26.174Z,93.94
2019-01-21T11:30:24.943Z,95.45
2019-01-21T11:31:23.845Z,98.86
2019-01-21T11:32:22.405Z,98.68
2019-01-21T11:33:20.951Z,91.86
2019-01-21T11:34:19.661Z,89.2
2019-01-21T11:35:18.292Z,89.49
2019-01-21T11:36:16.890Z,89.2
2019-01-21T11:37:15.426Z,88.45
2019-01-21T11:39:55.556Z,90.44
2019-01-21T11:40:54.083Z,89.01
2019-01-21T11:41:52.616Z,93.27
2019-01-21T11:42:51.171Z,92.9
2019-01-21T11:43:49.773Z,89.39
2019-01-21T11:44:48.382Z,89.87
2019-01-21T11:45:46.922Z,90.06
2019-01-21T11:46:45.508Z,89.01
2019-01-21T11:47:44.312Z,91.67
2019-01-21T11:48:43.214Z,99.52
2019-01-21T11:49:41.396Z,99.99
2019-01-21T11:50:40.049Z,99.99
2019-01-21T11:51:38.631Z,99.99
2019-01-21T11:52:37.165Z,99.99
2019-01-21T11:53:35.701Z,99.99
2019-01-21T11:54:34.271Z,99.99
2019-01-21T11:55:32.817Z,99.99
2019-01-21T11:56:31.342Z,99.99
2019-01-21T11:57:29.947Z,94.6
2019-01-21T11:58:28.654Z,94.42
2019-01-21T11:59:27.215Z,92.05
2019-01-21T12:00:26.061Z,99.99
2019-01-21T12:01:24.688Z,99.99
2019-01-21T12:02:23.221Z,99.99
2019-01-21T12:03:23.529Z,94.6
2019-01-21T12:04:20.279Z,93.84
2019-01-21T12:05:18.822Z,99.33
2019-01-21T12:06:17.366Z,99.99
2019-01-21T12:07:15.942Z,99.99
2019-01-21T12:08:14.479Z,99.99
2019-01-21T12:09:13.009Z,99.99
2019-01-21T12:10:11.685Z,99.99
2019-01-21T12:11:10.396Z,99.99
2019-01-21T12:12:08.961Z,99.99
2019-01-21T12:13:07.527Z,99.99
2019-01-21T12:14:06.310Z,99.99
2019-01-21T12:15:04.919Z,97.49
2019-01-21T12:16:03.870Z,91.67
2019-01-21T12:17:02.429Z,90.53
2019-01-21T12:18:00.984Z,93.99
2019-01-21T12:18:59.560Z,92.94
2019-01-21T12:19:58.394Z,92.71
2019-01-21T12:20:56.927Z,89.77
2019-01-21T12:21:55.488Z,88.82
2019-01-21T12:22:54.113Z,96.92
2019-01-21T12:23:52.769Z,99.99
2019-01-21T12:24:51.309Z,99.99
2019-01-21T12:25:50.179Z,99.99
2019-01-21T12:26:48.703Z,99.99
2019-01-21T12:27:47.266Z,99.99
2019-01-21T12:28:45.976Z,99.99
2019-01-21T12:29:44.707Z,99.99
2019-01-21T12:30:43.216Z,99.99
2019-01-21T12:31:41.740Z,95.69
2019-01-21T12:32:40.283Z,97.3
2019-01-21T12:33:38.862Z,95.6
2019-01-21T12:34:37.403Z,95.5
2019-01-21T12:35:35.914Z,93.89
2019-01-21T12:36:34.511Z,92.66
2019-01-21T12:37:33.061Z,91.9
2019-01-21T12:38:31.816Z,92.47
2019-01-21T12:39:30.542Z,91.9
2019-01-21T12:40:29.220Z,91.52
2019-01-21T12:41:27.776Z,90.39
2019-01-21T12:42:26.414Z,87.35
2019-01-21T12:43:24.938Z,85.74
2019-01-21T12:44:23.462Z,89.15
2019-01-21T12:45:21.974Z,90.48
2019-01-21T12:46:20.536Z,91.05
2019-01-21T12:47:19.113Z,87.07
2019-01-21T12:48:17.682Z,86.5
2019-01-21T12:49:16.202Z,85.8
2019-01-21T12:50:14.746Z,85.55
2019-01-21T12:51:13.303Z,88.59
2019-01-21T12:52:12.100Z,90.77
2019-01-21T12:53:10.693Z,92.76
2019-01-21T12:54:09.262Z,94.18
2019-01-21T12:55:07.943Z,93.61
2019-01-21T12:56:06.627Z,95.88
2019-01-21T12:57:05.231Z,96.64
2019-01-21T12:58:03.777Z,93.23
2019-01-21T12:59:02.295Z,87.69
2019-01-21T13:00:00.807Z,85.8
2019-01-21T13:00:59.342Z,85.74
2019-01-21T13:01:57.892Z,85.46
2019-01-21T13:02:56.410Z,84
2019-01-21T13:03:54.948Z,84.04
2019-01-21T13:04:53.517Z,85.08
2019-01-21T13:05:52.056Z,85.27
2019-01-21T13:06:50.599Z,93.04
2019-01-21T13:07:49.144Z,93.23
2019-01-21T13:08:47.739Z,99.96
2019-01-21T13:09:46.420Z,99.99
2019-01-21T13:10:44.977Z,99.99
2019-01-21T13:11:43.608Z,99.99
2019-01-21T13:12:42.216Z,99.99
2019-01-21T13:13:40.716Z,99.99
2019-01-21T13:14:39.256Z,99.99
2019-01-21T13:15:37.912Z,98.82
2019-01-21T13:16:36.538Z,99.86
2019-01-21T13:17:35.102Z,98.82
2019-01-21T13:18:33.671Z,94.46
2019-01-21T13:19:32.326Z,89.91
2019-01-21T13:20:30.924Z,89.91
2019-01-21T13:21:34.649Z,92.94
2019-01-21T13:22:28.127Z,91.43
2019-01-21T13:23:26.726Z,89.06
2019-01-21T13:24:25.267Z,89.53
2019-01-21T13:25:24.017Z,87.35
2019-01-21T13:26:22.658Z,87.73
2019-01-21T13:27:21.199Z,85.74
2019-01-21T13:28:19.722Z,84.7
2019-01-21T13:29:18.238Z,84.13
2019-01-21T13:30:16.740Z,85.46
2019-01-21T13:31:15.264Z,94.08
2019-01-21T13:32:13.963Z,99.99
2019-01-21T13:33:12.657Z,99.99
2019-01-21T13:34:11.186Z,99.99
2019-01-21T13:35:09.865Z,99.99
2019-01-21T13:36:08.518Z,99.99
2019-01-21T13:37:07.048Z,99.99
2019-01-21T13:38:05.676Z,99.99
2019-01-21T13:39:04.307Z,99.99
2019-01-21T13:40:02.888Z,99.99
2019-01-21T13:41:01.438Z,99.99
2019-01-21T13:42:00.052Z,99.99
2019-01-21T13:42:58.568Z,99.99
2019-01-21T13:43:57.158Z,99.99
2019-01-21T13:44:56.002Z,99.01
2019-01-21T13:45:54.705Z,99.48
2019-01-21T13:46:53.257Z,95.5
2019-01-21T13:47:51.879Z,92
2019-01-21T13:48:50.574Z,92.99
2019-01-21T13:49:49.083Z,89.63
2019-01-21T13:50:47.628Z,93.61
2019-01-21T13:51:46.191Z,89.63
2019-01-21T13:52:44.697Z,88.21
2019-01-21T13:53:43.238Z,85.93
2019-01-21T13:54:41.827Z,88.3
2019-01-21T13:55:40.513Z,89.82
2019-01-21T13:56:39.152Z,86.88
2019-01-21T13:57:37.884Z,87.83
2019-01-21T13:58:36.534Z,87.83
2019-01-21T13:59:35.191Z,92.28
2019-01-21T14:00:33.670Z,90.86
2019-01-21T14:01:32.331Z,88.78
2019-01-21T14:02:30.842Z,86.79
2019-01-21T14:03:29.359Z,84.7
2019-01-21T14:04:27.923Z,84.23
2019-01-21T14:05:30.961Z,85.17
2019-01-21T14:06:24.992Z,85.55
2019-01-21T14:07:23.571Z,86.26
2019-01-21T14:08:22.339Z,88.54
2019-01-21T14:09:20.883Z,90.77
2019-01-21T14:10:19.472Z,93.8
2019-01-21T14:11:18.221Z,95.22
2019-01-21T14:12:16.845Z,98.68
2019-01-21T14:14:57.296Z,99.99
2019-01-21T14:15:55.879Z,99.99
2019-01-21T14:16:54.569Z,99.99
2019-01-21T14:17:53.100Z,99.99
2019-01-21T14:18:51.811Z,99.99
2019-01-21T14:19:50.397Z,99.99
2019-01-21T14:20:48.910Z,99.99
2019-01-21T14:21:47.468Z,99.99
2019-01-21T14:22:46.003Z,98.87
2019-01-21T14:25:08.716Z,91.57
2019-01-21T14:26:07.226Z,90.62
2019-01-21T14:27:05.943Z,87.12
2019-01-21T14:28:04.690Z,85.31
2019-01-21T14:29:03.233Z,83.47
2019-01-21T14:30:01.841Z,85.13
2019-01-21T14:31:00.498Z,89.01
2019-01-21T14:33:35.390Z,90.62
2019-01-21T14:34:34.062Z,85.88
2019-01-21T14:35:32.643Z,84.65
2019-01-21T14:36:31.125Z,85.31
2019-01-21T14:37:29.674Z,84.55
2019-01-21T14:38:28.197Z,82.33
2019-01-21T14:39:26.719Z,80.72
2019-01-21T14:40:25.235Z,80.82
2019-01-21T14:41:23.788Z,80.53
2019-01-21T14:42:22.306Z,81.29
2019-01-21T14:43:21.056Z,80.63
2019-01-21T14:44:19.761Z,80.91
2019-01-21T14:45:18.568Z,80.86
2019-01-21T14:46:17.089Z,80.86
2019-01-21T14:47:15.622Z,80.82
2019-01-21T14:48:14.262Z,80.06
2019-01-21T14:49:13.749Z,80.15
2019-01-21T14:50:11.380Z,80.15
2019-01-21T14:51:09.923Z,80.72
2019-01-21T14:52:08.484Z,80.82
2019-01-21T14:53:07.045Z,80.06
2019-01-21T14:54:05.909Z,80.91
2019-01-21T14:55:04.653Z,81.2
2019-01-21T14:56:03.199Z,81.38
2019-01-21T14:57:01.741Z,81.1
2019-01-21T14:58:00.523Z,81.29
2019-01-21T14:58:59.039Z,81.38
2019-01-21T14:59:57.544Z,80.53
2019-01-21T15:00:56.136Z,80.53
2019-01-21T15:01:54.687Z,81.1
2019-01-21T15:02:53.231Z,80.82
2019-01-21T15:03:52.109Z,81.01
2019-01-21T15:04:50.805Z,81.2
2019-01-21T15:05:49.361Z,80.91
2019-01-21T15:06:47.963Z,80.91
2019-01-21T15:07:46.674Z,81.48
2019-01-21T15:08:45.240Z,81.2
2019-01-21T15:09:43.756Z,81.67
2019-01-21T15:10:42.354Z,81.76
2019-01-21T15:11:41.006Z,81.2
2019-01-21T15:12:39.616Z,81.57
2019-01-21T15:13:38.589Z,81.86
2019-01-21T15:14:37.072Z,81.48
2019-01-21T15:15:35.597Z,80.72
2019-01-21T15:16:34.284Z,81.29
2019-01-21T15:17:32.817Z,81.38
2019-01-21T15:18:31.341Z,81.48
2019-01-21T15:19:30.091Z,80.82
2019-01-21T15:20:28.768Z,80.72
2019-01-21T15:21:27.333Z,80.91